Roaring Gap, NC (28668)

12:50 PM EDT on July 27, 2016 (GMT -0400)
Glade Valley View | | Change Station

Elev 2936 ft 36.50 °N, 81.05 °W | Updated 0 second ago

Clear
Clear
83.5 °F
Feels Like 86 °F
N
4.0
Wind Variable Wind from NW
Gusts 7.4 mph

Today
High -- | Low -- °F
--% Chance of Precip.
Yesterday
High -- | Low -- °F
Precip. -- in
Pressure 30.09 in
Visibility 10.0 miles
Clouds Clear
Heat Index 86 °F
Dew Point 67 °F
Humidity 58%
Rainfall 0.00 in
Snow Depth Not available.
6:26 AM 8:33 PM
Last Quarter, 41% visible
METAR KUKF 271635Z AUTO 13004KT 10SM CLR 32/22 A3009 RMK AO2 LTG DSNT NW
Pressure 30.09 in
Visibility 10.0 miles
Clouds Clear
Heat Index 86 °F
Dew Point 67 °F
Humidity 58%
Rainfall 0.00 in
Snow Depth Not available.
6:26 AM 8:33 PM
Last Quarter, 41% visible
METAR KUKF 271635Z AUTO 13004KT 10SM CLR 32/22 A3009 RMK AO2 LTG DSNT NW

10-Day Weather Forecast

Almanac

Astronomy

Jul. 27, 2016 Rise Set
Actual Time
Civil Twilight
Nautical Twilight
Astronomical Twilight
Moon
Length of Visible Light
Length of Day
Tomorrow will be .
, % of the Moon is Illuminated

Today's Extremes

State Highs State Lows

Community

WunderPhotos

Upload Photos

1,927,880 photos uploaded!

WunderBlog® & News

Nearby

Air Quality

  Air Quality AQ Index Pollutant
Not available.

Snow Depth

Station Depth Elevation

Earthquake Activity

City Distance Mag. Time & Date
Minimum magnitude displayed is 2.5.

Coastal Water Temperatures

Place Temperature

Stations

Nearby Weather Stations

Station Location Temp. Windchill Dew Point Humidity Wind Precip. Elev Updated Type
                   

Watches & Warnings

There are currently no watches in effect.